Time;durP1;ratioP1;P1;durP2;ratioP2;P2;SDS_P1;SDS_P2;PMS_P1;PMS_P2;Temp;Humidity;BMP_temperature;BMP_pressure;BME280_temperature;BME280_humidity;BME280_pressure;Samples;Min_cycle;Max_cycle;Signal;HPM_P1;HPM_P2
2021/12/06 00:01:12;;;;;;;;;6.00;6.00;;;;;-147.17;100.00;50361.72;4913758;28;51152;-65
2021/12/06 00:03:46;;;;;;;;;7.75;7.75;;;;;-147.17;100.00;50367.63;4915985;28;51219;-65
2021/12/06 00:06:13;;;;;;;;;2.25;2.25;;;;;-147.17;100.00;50345.97;4918284;28;51769;-65
2021/12/06 00:08:38;;;;;;;;;3.00;3.00;;;;;-147.17;100.00;50353.84;4927708;28;51090;-65
2021/12/06 00:11:08;;;;;;;;;4.00;4.00;;;;;-147.17;100.00;50363.69;4914379;28;52789;-65
2021/12/06 00:13:40;;;;;;;;;4.67;4.00;;;;;-147.17;100.00;50344.00;4969308;28;51199;-64
2021/12/06 00:16:10;;;;;;;;;5.33;4.00;;;;;-147.17;100.00;50353.84;4917892;28;51334;-65
2021/12/06 00:18:36;;;;;;;;;3.75;3.75;;;;;-147.17;100.00;50363.69;4948789;28;51213;-65
2021/12/06 00:21:02;;;;;;;;;5.00;4.00;;;;;-147.17;100.00;50377.47;4930190;28;51147;-65
2021/12/06 00:23:28;;;;;;;;;7.00;5.50;;;;;-147.17;100.00;50357.78;4915443;28;51265;-65
2021/12/06 00:25:54;;;;;;;;;4.00;3.00;;;;;-147.17;100.00;50353.84;4910914;28;51753;-64
2021/12/06 00:28:20;;;;;;;;;6.75;4.00;;;;;-147.17;100.00;50355.81;4907435;28;50946;-65
2021/12/06 00:30:45;;;;;;;;;7.00;6.50;;;;;-147.17;100.00;50361.72;4939100;28;51058;-65
2021/12/06 00:33:11;;;;;;;;;3.00;3.00;;;;;-147.17;100.00;50353.84;4907883;28;50909;-65
2021/12/06 00:35:36;;;;;;;;;2.00;2.00;;;;;-147.17;100.00;50379.44;4913507;28;51951;-66
2021/12/06 00:38:01;;;;;;;;;3.75;3.75;;;;;-147.17;100.00;50344.00;4913148;28;51008;-64
2021/12/06 00:40:46;;;;;;;;;4.00;3.75;;;;;-147.17;100.00;50371.56;4992349;28;51017;-64
2021/12/06 00:43:12;;;;;;;;;3.00;2.25;;;;;-147.17;100.00;50349.91;4993462;28;51028;-65
2021/12/06 00:45:40;;;;;;;;;1.50;1.00;;;;;-147.17;100.00;50365.66;4993869;28;51061;-65
2021/12/06 00:48:05;;;;;;;;;3.00;2.50;;;;;-147.17;100.00;50363.69;4974268;28;52461;-64
2021/12/06 00:50:34;;;;;;;;;3.00;3.00;;;;;-147.17;100.00;50363.69;4970307;28;51203;-65
2021/12/06 00:53:00;;;;;;;;;3.50;3.00;;;;;-147.17;100.00;50375.50;4980748;28;51174;-65
2021/12/06 00:55:25;;;;;;;;;4.33;3.67;;;;;-147.17;100.00;50340.06;4994107;28;50966;-64
2021/12/06 00:57:54;;;;;;;;;2.50;2.50;;;;;-147.17;100.00;50381.41;4953017;28;51233;-64
2021/12/06 01:00:26;;;;;;;;;3.75;3.00;;;;;-147.17;100.00;50359.75;4912157;28;51169;-66
2021/12/06 01:02:54;;;;;;;;;3.25;3.00;;;;;-147.17;100.00;50383.38;4913740;28;50881;-64
2021/12/06 01:05:23;;;;;;;;;3.67;3.67;;;;;-147.17;100.00;50367.63;4913520;28;52171;-65
2021/12/06 01:07:50;;;;;;;;;4.00;4.00;;;;;-147.17;100.00;50318.41;4933404;28;51226;-66
2021/12/06 01:10:15;;;;;;;;;4.50;4.50;;;;;-147.17;100.00;50347.94;4982241;28;51554;-65
2021/12/06 01:12:41;;;;;;;;;2.75;2.75;;;;;-147.17;100.00;50361.72;4987606;28;51403;-65
2021/12/06 01:15:07;;;;;;;;;4.00;4.00;;;;;-147.17;100.00;50387.31;4940600;28;50977;-65
2021/12/06 01:17:33;;;;;;;;;3.00;3.00;;;;;-147.17;100.00;50367.63;4912359;28;51115;-64
2021/12/06 01:19:58;;;;;;;;;6.25;5.00;;;;;-147.17;100.00;50359.75;4966660;28;51075;-65
2021/12/06 01:22:34;;;;;;;;;3.25;3.25;;;;;-147.17;100.00;50345.97;4941759;28;51501;-64
2021/12/06 01:25:04;;;;;;;;;6.00;3.50;;;;;-147.17;100.00;50367.63;4993596;28;52903;-64
2021/12/06 01:31:30;;;;;;;;;3.75;3.00;;;;;-147.17;100.00;50355.81;4949509;28;51281;-64
2021/12/06 01:34:03;;;;;;;;;5.50;4.00;;;;;-147.17;100.00;50344.00;4915459;28;51072;-64
2021/12/06 01:41:35;;;;;;;;;2.75;2.50;;;;;-147.17;100.00;50316.44;4993512;28;51440;-65
2021/12/06 01:44:14;;;;;;;;;2.25;2.00;;;;;-147.17;100.00;50357.78;4978981;28;51274;-65
2021/12/06 01:47:01;;;;;;;;;3.00;3.00;;;;;-147.17;100.00;50355.81;4991554;28;52722;-64
2021/12/06 01:49:31;;;;;;;;;4.00;3.75;;;;;-147.17;100.00;50334.16;4993523;28;51463;-65
2021/12/06 01:52:00;;;;;;;;;3.25;3.25;;;;;-147.17;100.00;50345.97;4948191;28;50881;-64
2021/12/06 01:54:25;;;;;;;;;3.75;3.00;;;;;-147.17;100.00;50328.25;4992966;28;50955;-65
2021/12/06 01:56:52;;;;;;;;;3.00;3.00;;;;;-147.17;100.00;50340.06;4992772;28;51150;-65
2021/12/06 01:59:19;;;;;;;;;7.50;7.50;;;;;-147.17;100.00;50336.13;4967907;28;51102;-65
2021/12/06 02:01:44;;;;;;;;;6.00;4.00;;;;;-147.17;100.00;50330.22;4951044;28;51171;-64
2021/12/06 02:04:12;;;;;;;;;4.00;4.00;;;;;-147.17;100.00;50306.63;4991796;28;51109;-65
2021/12/06 02:06:39;;;;;;;;;3.00;3.00;;;;;-147.17;100.00;50330.22;4999066;28;52027;-65
2021/12/06 02:09:07;;;;;;;;;6.00;6.00;;;;;-147.17;100.00;50345.97;4899197;28;51063;-65
2021/12/06 02:11:35;;;;;;;;;3.75;3.75;;;;;-147.17;100.00;50328.25;4967126;28;51090;-65
2021/12/06 02:14:19;;;;;;;;;2.33;2.00;;;;;-147.17;100.00;50312.53;4976306;28;50954;-66
2021/12/06 02:17:56;;;;;;;;;3.00;3.00;;;;;-147.17;100.00;50328.25;4913675;28;52190;-65
2021/12/06 02:19:47;;;;;;;;;4.25;3.75;;;;;-147.17;100.00;50320.38;4902130;28;51283;-65
2021/12/06 02:22:18;;;;;;;;;3.25;3.00;;;;;-147.17;100.00;50324.31;4912577;28;51165;-64
2021/12/06 02:24:44;;;;;;;;;3.33;3.33;;;;;-147.17;100.00;50306.63;4910203;28;51073;-64
2021/12/06 02:27:11;;;;;;;;;2.33;2.00;;;;;-147.17;100.00;50344.00;4934382;28;52762;-65
2021/12/06 02:29:37;;;;;;;;;3.00;3.00;;;;;-147.17;100.00;50332.19;4909292;28;51209;-64
2021/12/06 02:32:09;;;;;;;;;3.00;2.67;;;;;-147.17;100.00;50347.94;4909496;28;51337;-64
2021/12/06 02:34:35;;;;;;;;;2.00;2.00;;;;;-147.17;100.00;50320.38;4912507;28;51198;-64
2021/12/06 02:37:01;;;;;;;;;3.00;3.00;;;;;-147.17;100.00;50284.97;4925077;28;51225;-64
2021/12/06 02:39:29;;;;;;;;;3.50;3.25;;;;;-147.17;100.00;50347.94;4992795;28;51223;-64
2021/12/06 02:41:56;;;;;;;;;5.33;3.00;;;;;-147.17;100.00;50316.44;4992792;28;50898;-64
2021/12/06 02:44:22;;;;;;;;;3.33;3.00;;;;;-147.17;100.00;50312.53;4993060;28;51386;-64
2021/12/06 02:46:48;;;;;;;;;4.00;3.00;;;;;-147.17;100.00;50320.38;4971240;28;51863;-65
2021/12/06 02:49:15;;;;;;;;;4.00;3.50;;;;;-147.17;100.00;50334.16;4992846;28;50925;-65
2021/12/06 02:51:41;;;;;;;;;3.50;3.00;;;;;-147.17;100.00;50308.59;4944706;28;51035;-64
2021/12/06 02:54:07;;;;;;;;;5.50;3.00;;;;;-147.17;100.00;50324.31;4987568;28;51286;-65
2021/12/06 02:57:20;;;;;;;;;5.75;5.50;;;;;-147.17;100.00;50322.34;4937968;28;51744;-65
2021/12/06 02:59:24;;;;;;;;;3.00;3.00;;;;;-147.17;100.00;50300.72;4989612;28;50925;-66
2021/12/06 03:01:56;;;;;;;;;4.00;3.75;;;;;-147.17;100.00;50328.25;4899264;28;51036;-65
2021/12/06 03:04:23;;;;;;;;;4.00;3.25;;;;;-147.17;100.00;50304.66;4914024;28;50972;-64
2021/12/06 03:06:53;;;;;;;;;4.00;4.00;;;;;-147.17;100.00;50320.38;4964319;28;50929;-64
2021/12/06 03:09:21;;;;;;;;;3.25;3.25;;;;;-147.17;100.00;50277.09;4914869;28;51059;-64
2021/12/06 03:11:52;;;;;;;;;3.25;3.25;;;;;-147.17;100.00;50344.00;4915151;28;50960;-64
2021/12/06 03:14:26;;;;;;;;;6.00;6.00;;;;;-147.17;100.00;50310.56;4911429;28;51258;-65
2021/12/06 03:16:53;;;;;;;;;3.00;3.00;;;;;-147.17;100.00;50336.13;4971770;28;52333;-64
2021/12/06 03:19:18;;;;;;;;;7.00;6.00;;;;;-147.17;100.00;50347.94;4995596;28;50948;-64
2021/12/06 03:21:44;;;;;;;;;7.00;6.00;;;;;-147.17;100.00;50322.34;4995715;28;50873;-64
2021/12/06 03:24:10;;;;;;;;;6.00;3.25;;;;;-147.17;100.00;50300.72;4965555;28;51098;-64
2021/12/06 03:26:37;;;;;;;;;7.00;6.50;;;;;-147.17;100.00;50300.72;4995260;28;52820;-64
2021/12/06 03:29:04;;;;;;;;;4.50;4.50;;;;;-147.17;100.00;50316.44;4919977;28;51197;-64
2021/12/06 03:31:30;;;;;;;;;4.25;4.25;;;;;-147.17;100.00;50347.94;4970372;28;51184;-64
2021/12/06 03:33:56;;;;;;;;;5.50;5.50;;;;;-147.17;100.00;50347.94;4995811;28;50913;-65
2021/12/06 03:36:25;;;;;;;;;6.50;5.75;;;;;-147.17;100.00;50361.72;4995149;28;52054;-65
2021/12/06 03:38:52;;;;;;;;;4.00;4.00;;;;;-147.17;100.00;50347.94;4990634;28;50960;-65
2021/12/06 03:41:21;;;;;;;;;3.25;3.25;;;;;-147.17;100.00;50320.38;4914303;28;51002;-65
2021/12/06 03:43:46;;;;;;;;;9.00;7.25;;;;;-147.17;100.00;50314.47;4914871;28;51143;-65
2021/12/06 03:46:15;;;;;;;;;7.50;6.00;;;;;-147.17;100.00;50326.28;4914055;28;51162;-65
2021/12/06 03:48:41;;;;;;;;;6.25;6.25;;;;;-147.17;100.00;50328.25;4915499;28;50954;-66
2021/12/06 03:51:06;;;;;;;;;7.25;6.00;;;;;-147.17;100.00;50292.84;4913557;28;51313;-65
2021/12/06 03:53:32;;;;;;;;;6.00;6.00;;;;;-147.17;100.00;50336.13;4914812;28;50917;-65
2021/12/06 03:55:58;;;;;;;;;8.00;7.50;;;;;-147.17;100.00;50320.38;4972175;28;53331;-65
2021/12/06 03:58:24;;;;;;;;;7.50;7.25;;;;;-147.17;100.00;50308.59;4995230;28;51071;-65
2021/12/06 04:00:50;;;;;;;;;8.75;7.00;;;;;-147.17;100.00;50300.72;4924288;28;51098;-64
2021/12/06 04:03:17;;;;;;;;;5.75;5.75;;;;;-147.17;100.00;50324.31;4914316;28;51229;-63
2021/12/06 04:05:43;;;;;;;;;7.00;6.00;;;;;-147.17;100.00;50322.34;4971712;28;51895;-64
2021/12/06 04:08:09;;;;;;;;;9.00;8.00;;;;;-147.17;100.00;50308.59;4993559;28;51073;-64
2021/12/06 04:10:34;;;;;;;;;8.00;8.00;;;;;-147.17;100.00;50304.66;4942044;28;51044;-64
2021/12/06 04:13:00;;;;;;;;;7.50;7.00;;;;;-147.17;100.00;50298.75;4934807;28;51298;-65
2021/12/06 04:15:30;;;;;;;;;6.50;6.50;;;;;-147.17;100.00;50320.38;4922508;28;51593;-65
2021/12/06 04:17:56;;;;;;;;;9.50;8.00;;;;;-147.17;100.00;50306.63;4954970;28;51083;-64
2021/12/06 04:20:22;;;;;;;;;9.00;8.25;;;;;-147.17;100.00;50336.13;4994694;28;50996;-64
2021/12/06 04:22:47;;;;;;;;;7.75;7.75;;;;;-147.17;100.00;50334.16;4994885;28;51293;-65
2021/12/06 04:25:16;;;;;;;;;7.25;7.25;;;;;-147.17;100.00;50322.34;4939204;28;51054;-64
2021/12/06 04:27:42;;;;;;;;;7.00;7.00;;;;;-147.17;100.00;50292.84;4918789;28;51202;-64
2021/12/06 04:30:11;;;;;;;;;6.75;5.50;;;;;-147.17;100.00;50332.19;4913828;28;51163;-63
2021/12/06 04:32:37;;;;;;;;;7.25;6.25;;;;;-147.17;100.00;50332.19;4901109;28;51425;-65
2021/12/06 04:35:04;;;;;;;;;7.75;7.00;;;;;-147.17;100.00;50298.75;4912524;28;51084;-64
2021/12/06 04:37:29;;;;;;;;;6.25;6.00;;;;;-147.17;100.00;50322.34;4913990;28;50937;-65
2021/12/06 04:39:54;;;;;;;;;7.00;7.00;;;;;-147.17;100.00;50320.38;4913603;28;51146;-65
2021/12/06 04:42:21;;;;;;;;;7.00;7.00;;;;;-147.17;100.00;50292.84;4939119;28;50905;-65
2021/12/06 04:44:47;;;;;;;;;7.00;6.00;;;;;-147.17;100.00;50318.41;4994101;28;51775;-65
2021/12/06 04:47:12;;;;;;;;;8.25;7.00;;;;;-147.17;100.00;50312.53;4994132;28;51043;-65
2021/12/06 04:49:38;;;;;;;;;5.00;4.75;;;;;-147.17;100.00;50338.09;4970195;28;51268;-65
2021/12/06 04:52:08;;;;;;;;;7.00;7.00;;;;;-147.17;100.00;50304.66;4945850;28;51306;-65
2021/12/06 04:54:38;;;;;;;;;6.00;6.00;;;;;-147.17;100.00;50308.59;4993885;28;51157;-65
2021/12/06 04:57:23;;;;;;;;;6.25;6.25;;;;;-147.17;100.00;50322.34;4973794;28;51126;-64
2021/12/06 04:59:54;;;;;;;;;7.00;7.00;;;;;-147.17;100.00;50300.72;4994024;28;51108;-64
2021/12/06 05:02:24;;;;;;;;;8.50;7.75;;;;;-147.17;100.00;50284.97;4993822;28;51269;-64
2021/12/06 05:04:53;;;;;;;;;7.00;6.50;;;;;-147.17;100.00;50318.41;4993608;28;50987;-65
2021/12/06 05:07:32;;;;;;;;;8.50;8.00;;;;;-147.17;100.00;50300.72;4931840;28;51085;-65
2021/12/06 05:09:58;;;;;;;;;6.75;6.50;;;;;-147.17;100.00;50302.69;4913698;28;51663;-66
2021/12/06 05:12:27;;;;;;;;;8.25;7.50;;;;;-147.17;100.00;50324.31;4913924;28;51151;-65
2021/12/06 05:14:53;;;;;;;;;6.50;6.00;;;;;-147.17;100.00;50290.88;4913130;28;51063;-64
2021/12/06 05:17:19;;;;;;;;;7.75;7.00;;;;;-147.17;100.00;50284.97;4929921;28;51106;-65
2021/12/06 05:19:45;;;;;;;;;7.50;7.00;;;;;-147.17;100.00;50281.03;4994224;28;50934;-63
2021/12/06 05:22:10;;;;;;;;;7.25;7.25;;;;;-147.17;100.00;50281.03;4993976;28;51362;-64
2021/12/06 05:24:37;;;;;;;;;6.50;6.50;;;;;-147.17;100.00;50302.69;4971570;28;51632;-64
2021/12/06 05:27:04;;;;;;;;;9.00;7.00;;;;;-147.17;100.00;50245.59;4977293;28;51059;-65
2021/12/06 05:29:32;;;;;;;;;9.75;8.50;;;;;-147.17;100.00;50296.78;4912526;28;51078;-65
2021/12/06 05:31:59;;;;;;;;;8.00;7.50;;;;;-147.17;100.00;50316.44;4913016;28;51308;-64
2021/12/06 05:34:32;;;;;;;;;8.00;6.50;;;;;-147.17;100.00;50304.66;4912210;28;51849;-65
2021/12/06 05:36:58;;;;;;;;;8.00;7.75;;;;;-147.17;100.00;50328.25;4989369;28;51027;-65
2021/12/06 05:39:30;;;;;;;;;7.50;6.75;;;;;-147.17;100.00;50328.25;4993645;28;51107;-64
2021/12/06 05:42:06;;;;;;;;;8.00;7.00;;;;;-147.17;100.00;50338.09;4993700;28;51420;-64
2021/12/06 05:44:32;;;;;;;;;8.25;7.25;;;;;-147.17;100.00;50306.63;4974360;28;51894;-63
2021/12/06 05:46:59;;;;;;;;;10.00;9.25;;;;;-147.17;100.00;50320.38;4912941;28;50946;-65
2021/12/06 05:49:25;;;;;;;;;7.50;7.50;;;;;-147.17;100.00;50318.41;4917471;28;51099;-65
2021/12/06 05:51:51;;;;;;;;;5.75;4.00;;;;;-147.17;100.00;50304.66;4956889;28;51244;-65
2021/12/06 05:54:17;;;;;;;;;10.25;8.75;;;;;-147.17;100.00;50314.47;4984254;28;51900;-65
2021/12/06 05:56:44;;;;;;;;;11.00;9.00;;;;;-147.17;100.00;50330.22;4918540;28;51048;-64
2021/12/06 05:59:10;;;;;;;;;10.00;9.00;;;;;-147.17;100.00;50306.63;4970703;28;51069;-64
2021/12/06 06:01:35;;;;;;;;;9.00;8.25;;;;;-147.17;100.00;50302.69;4933807;28;51146;-64
2021/12/06 06:04:01;;;;;;;;;7.00;7.00;;;;;-147.17;100.00;50316.44;4910122;28;51794;-65
2021/12/06 06:06:29;;;;;;;;;8.00;7.50;;;;;-147.17;100.00;50283.00;4958441;28;51098;-65
2021/12/06 06:08:55;;;;;;;;;8.75;8.75;;;;;-147.17;100.00;50284.97;4976660;28;51024;-64
2021/12/06 06:11:20;;;;;;;;;8.75;8.50;;;;;-147.17;100.00;50320.38;4986092;28;50900;-63
2021/12/06 06:13:46;;;;;;;;;8.00;7.50;;;;;-147.17;100.00;50300.72;4984281;28;51672;-64
2021/12/06 06:16:11;;;;;;;;;10.00;9.00;;;;;-147.17;100.00;50316.44;4912389;28;50996;-64
2021/12/06 06:18:36;;;;;;;;;7.25;7.25;;;;;-147.17;100.00;50277.09;4912829;28;51607;-64
2021/12/06 06:21:02;;;;;;;;;13.75;13.00;;;;;-147.17;100.00;50304.66;4912435;28;51406;-64
2021/12/06 06:23:28;;;;;;;;;8.75;8.75;;;;;-147.17;100.00;50328.25;4912193;28;51588;-65
2021/12/06 06:25:54;;;;;;;;;11.00;9.75;;;;;-147.17;100.00;50328.25;4912219;28;51147;-64
2021/12/06 06:28:20;;;;;;;;;7.75;7.50;;;;;-147.17;100.00;50340.06;4918912;28;51099;-64
2021/12/06 06:30:45;;;;;;;;;10.25;9.00;;;;;-147.17;100.00;50296.78;4954160;28;51285;-65
2021/12/06 06:33:10;;;;;;;;;8.25;7.50;;;;;-147.17;100.00;50316.44;4953709;28;51014;-67
2021/12/06 06:35:36;;;;;;;;;8.00;7.75;;;;;-147.17;100.00;50277.09;4991170;28;50937;-64
2021/12/06 06:38:02;;;;;;;;;13.00;12.00;;;;;-147.17;100.00;50281.03;4992594;28;51121;-64
2021/12/06 06:40:28;;;;;;;;;12.25;9.75;;;;;-147.17;100.00;50310.56;4994466;28;51216;-65
2021/12/06 06:42:53;;;;;;;;;8.00;7.00;;;;;-147.17;100.00;50284.97;4994788;28;54124;-64
2021/12/06 06:45:20;;;;;;;;;8.25;8.25;;;;;-147.17;100.00;50304.66;4995541;28;51132;-65
2021/12/06 06:47:47;;;;;;;;;13.00;12.75;;;;;-147.17;100.00;50312.53;4921032;28;50833;-65
2021/12/06 06:50:15;;;;;;;;;10.50;10.50;;;;;-147.17;100.00;50312.53;4914905;28;50901;-64
2021/12/06 06:52:41;;;;;;;;;9.50;7.00;;;;;-147.17;100.00;50340.06;4990088;28;52394;-64
2021/12/06 06:55:09;;;;;;;;;11.25;9.00;;;;;-147.17;100.00;50312.53;4910197;28;51166;-65
2021/12/06 06:57:35;;;;;;;;;8.00;7.75;;;;;-147.17;100.00;50281.03;4914541;28;51095;-64
2021/12/06 07:00:04;;;;;;;;;8.00;7.00;;;;;-147.17;100.00;50334.16;4987476;28;51322;-65
2021/12/06 07:02:29;;;;;;;;;9.50;9.50;;;;;-147.17;100.00;50373.53;4923999;28;52590;-65
2021/12/06 07:04:55;;;;;;;;;14.00;11.00;;;;;-147.17;100.00;50332.19;4913855;28;51091;-64
2021/12/06 07:07:20;;;;;;;;;8.25;7.50;;;;;-147.17;100.00;50332.19;4914545;28;50888;-64
2021/12/06 07:09:45;;;;;;;;;10.75;9.25;;;;;-147.17;100.00;50344.00;4913341;28;51217;-63
2021/12/06 07:12:17;;;;;;;;;9.25;7.50;;;;;-147.17;100.00;50312.53;4913288;28;52661;-64
2021/12/06 07:14:45;;;;;;;;;8.00;8.00;;;;;-147.17;100.00;50324.31;4914481;28;51149;-64
2021/12/06 07:17:10;;;;;;;;;8.75;8.00;;;;;-147.17;100.00;50330.22;4913971;28;50980;-63
2021/12/06 07:19:36;;;;;;;;;12.75;12.00;;;;;-147.17;100.00;50332.19;4914156;28;51361;-63
2021/12/06 07:22:01;;;;;;;;;12.00;10.25;;;;;-147.17;100.00;50324.31;4914285;28;51231;-64
2021/12/06 07:24:27;;;;;;;;;12.75;11.75;;;;;-147.17;100.00;50326.28;4913052;28;51137;-64
2021/12/06 07:26:53;;;;;;;;;12.75;11.75;;;;;-147.17;100.00;50363.69;4914006;28;51021;-64
2021/12/06 07:29:19;;;;;;;;;10.00;9.25;;;;;-147.17;100.00;50316.44;4913951;28;51281;-64
2021/12/06 07:31:44;;;;;;;;;15.25;12.25;;;;;-147.17;100.00;50361.72;4924894;28;51555;-64
2021/12/06 07:34:09;;;;;;;;;15.75;14.00;;;;;-147.17;100.00;50328.25;4920580;28;51541;-63
2021/12/06 07:36:35;;;;;;;;;15.75;14.00;;;;;-147.17;100.00;50334.16;4913118;28;51095;-64
2021/12/06 07:39:00;;;;;;;;;12.25;10.75;;;;;-147.17;100.00;50334.16;4913740;28;50914;-64
2021/12/06 07:41:28;;;;;;;;;15.75;15.00;;;;;-147.17;100.00;50334.16;4913638;28;51644;-64
2021/12/06 07:43:55;;;;;;;;;15.00;14.75;;;;;-147.17;100.00;50373.53;4913849;28;51159;-64
2021/12/06 07:46:20;;;;;;;;;15.75;14.75;;;;;-147.17;100.00;50344.00;4913475;28;51165;-65
2021/12/06 07:48:52;;;;;;;;;18.75;17.00;;;;;-147.17;100.00;50371.56;4914222;28;51453;-66
2021/12/06 07:51:24;;;;;;;;;18.00;16.00;;;;;-147.17;100.00;50320.38;4925287;28;53642;-65
2021/12/06 07:53:50;;;;;;;;;14.75;13.00;;;;;-147.17;100.00;50328.25;4995149;28;50986;-64
2021/12/06 07:56:19;;;;;;;;;16.00;16.00;;;;;-147.17;100.00;50332.19;5010075;28;50958;-64
2021/12/06 07:58:47;;;;;;;;;17.25;16.50;;;;;-147.17;100.00;50340.06;4995213;28;51079;-65
2021/12/06 08:01:15;;;;;;;;;19.75;18.75;;;;;-147.17;100.00;50310.56;4994238;28;51116;-63
2021/12/06 08:03:42;;;;;;;;;16.00;15.00;;;;;-147.17;100.00;50373.53;4993542;28;51039;-65
2021/12/06 08:06:09;;;;;;;;;13.75;13.75;;;;;-147.17;100.00;50373.53;4977149;28;51312;-65
2021/12/06 08:08:40;;;;;;;;;14.00;13.75;;;;;-147.17;100.00;50361.72;4914051;28;51158;-66
2021/12/06 08:11:14;;;;;;;;;15.00;14.25;;;;;-147.17;100.00;50349.91;4913649;28;52114;-65
2021/12/06 08:13:43;;;;;;;;;21.25;17.25;;;;;-147.17;100.00;50353.84;4913914;28;50935;-64
2021/12/06 08:16:13;;;;;;;;;20.25;19.25;;;;;-147.17;100.00;50367.63;4913423;28;51215;-64
2021/12/06 08:18:38;;;;;;;;;21.00;19.00;;;;;-147.17;100.00;50367.63;4913778;28;51037;-63
2021/12/06 08:21:05;;;;;;;;;16.75;14.75;;;;;-147.17;100.00;50365.66;4913273;28;51153;-64
2021/12/06 08:23:31;;;;;;;;;15.50;15.50;;;;;-147.17;100.00;50347.94;4913550;28;50892;-63
2021/12/06 08:25:57;;;;;;;;;15.25;15.25;;;;;-147.17;100.00;50342.03;4912187;28;51179;-64
2021/12/06 08:28:23;;;;;;;;;13.75;13.00;;;;;-147.17;100.00;50363.69;4908382;28;51245;-64
2021/12/06 08:30:51;;;;;;;;;16.00;15.50;;;;;-147.17;100.00;50369.59;4902418;28;51720;-64
2021/12/06 08:33:18;;;;;;;;;13.00;12.25;;;;;-147.17;100.00;50353.84;4955426;28;50982;-65
2021/12/06 08:35:46;;;;;;;;;15.00;14.50;;;;;-147.17;100.00;50365.66;4993863;28;50990;-64
2021/12/06 08:38:13;;;;;;;;;14.00;14.00;;;;;-147.17;100.00;50334.16;4994049;28;51344;-64
2021/12/06 08:40:41;;;;;;;;;14.75;12.00;;;;;-147.17;100.00;50369.59;4993679;28;52113;-64
2021/12/06 08:43:06;;;;;;;;;18.75;18.00;;;;;-147.17;100.00;50347.94;4993682;28;50972;-64
2021/12/06 08:45:32;;;;;;;;;37.50;32.75;;;;;-147.17;100.00;50359.75;4993731;28;50953;-63
2021/12/06 08:47:59;;;;;;;;;14.50;14.25;;;;;-147.17;100.00;50375.50;4994118;28;51023;-63
2021/12/06 08:50:26;;;;;;;;;16.00;13.25;;;;;-147.17;100.00;50375.50;4989851;28;51922;-64
2021/12/06 08:52:53;;;;;;;;;17.25;14.00;;;;;-147.17;100.00;50361.72;4993920;28;51003;-63
2021/12/06 08:55:20;;;;;;;;;15.75;13.00;;;;;-147.17;100.00;50410.94;4993884;28;51116;-63
2021/12/06 08:57:46;;;;;;;;;19.00;16.50;;;;;-147.17;100.00;50414.88;4994003;28;50954;-63
2021/12/06 09:00:19;;;;;;;;;19.00;17.50;;;;;-147.17;100.00;50407.00;4993140;28;51985;-64
2021/12/06 09:02:45;;;;;;;;;14.75;14.00;;;;;-147.17;100.00;50424.72;4993810;28;51241;-63
2021/12/06 09:05:11;;;;;;;;;15.25;14.00;;;;;-147.17;100.00;50397.16;4960007;28;51251;-64
2021/12/06 09:07:37;;;;;;;;;17.50;16.75;;;;;-147.17;100.00;50430.63;4913488;28;51183;-62
2021/12/06 09:10:07;;;;;;;;;16.00;16.00;;;;;-147.17;100.00;50387.31;4912826;28;51027;-63
2021/12/06 09:12:33;;;;;;;;;19.25;18.25;;;;;-147.17;100.00;50430.63;4913298;28;51056;-62
2021/12/06 09:15:04;;;;;;;;;17.75;16.75;;;;;-147.17;100.00;50414.88;4911712;28;51048;-61
2021/12/06 09:17:29;;;;;;;;;15.00;15.00;;;;;-147.17;100.00;50442.44;4946779;28;51355;-60
2021/12/06 09:19:55;;;;;;;;;16.00;14.75;;;;;-147.17;100.00;50412.91;4904016;28;51854;-60
2021/12/06 09:22:21;;;;;;;;;14.00;13.50;;;;;-147.17;100.00;50450.31;4982235;28;51064;-62
2021/12/06 09:24:49;;;;;;;;;20.75;19.50;;;;;-147.17;100.00;50420.78;4993171;28;51171;-64
2021/12/06 09:27:14;;;;;;;;;15.75;15.00;;;;;-147.17;100.00;50385.34;4975897;28;51282;-64
2021/12/06 09:29:40;;;;;;;;;19.25;18.75;;;;;-147.17;100.00;50385.34;4922077;28;52645;-65
2021/12/06 09:32:09;;;;;;;;;16.75;13.50;;;;;-147.17;100.00;50426.69;4914659;28;51183;-63
2021/12/06 09:34:39;;;;;;;;;18.50;16.75;;;;;-147.17;100.00;50414.88;4912605;28;50975;-65
2021/12/06 09:37:06;;;;;;;;;14.25;13.00;;;;;-147.17;100.00;50430.63;4912679;28;51018;-63
2021/12/06 09:39:32;;;;;;;;;16.75;14.25;;;;;-147.17;100.00;50422.75;4912577;28;52113;-64
2021/12/06 09:41:59;;;;;;;;;14.50;13.75;;;;;-147.17;100.00;50434.56;4912716;28;50938;-63
2021/12/06 09:44:24;;;;;;;;;14.50;13.75;;;;;-147.17;100.00;50444.41;4912683;28;50886;-64
2021/12/06 09:46:50;;;;;;;;;10.75;10.75;;;;;-147.17;100.00;50407.00;4920308;28;50926;-64
2021/12/06 09:49:19;;;;;;;;;11.50;9.75;;;;;-147.17;100.00;50448.34;4912344;28;51723;-64
2021/12/06 09:51:52;;;;;;;;;13.25;11.50;;;;;-147.17;100.00;50462.13;4933971;28;51087;-63
2021/12/06 09:54:25;;;;;;;;;22.50;20.75;;;;;-147.17;100.00;50446.38;4992749;28;51004;-64
2021/12/06 09:56:51;;;;;;;;;17.00;16.00;;;;;-147.17;100.00;50414.88;4991749;28;51374;-63
2021/12/06 09:59:20;;;;;;;;;15.50;14.50;;;;;-147.17;100.00;50440.47;4938493;28;51252;-64
2021/12/06 10:01:50;;;;;;;;;15.00;13.75;;;;;-147.17;100.00;50458.19;4992292;28;51091;-63
2021/12/06 10:04:20;;;;;;;;;11.00;11.00;;;;;-147.17;100.00;50466.06;4942721;28;50882;-65
2021/12/06 10:06:46;;;;;;;;;14.75;14.00;;;;;-147.17;100.00;50395.19;4912813;28;51244;-64
2021/12/06 10:09:14;;;;;;;;;15.00;14.00;;;;;-147.17;100.00;50477.88;4912046;28;52272;-64
2021/12/06 10:11:40;;;;;;;;;12.75;11.00;;;;;-147.17;100.00;50462.13;4912538;28;51003;-65
2021/12/06 10:14:06;;;;;;;;;10.25;9.50;;;;;-147.17;100.00;50454.25;4910833;28;52096;-64
2021/12/06 10:16:31;;;;;;;;;11.00;11.00;;;;;-147.17;100.00;50450.31;4910524;28;50961;-64
2021/12/06 10:18:57;;;;;;;;;11.00;11.00;;;;;-147.17;100.00;50399.13;4931321;28;51914;-64
2021/12/06 10:21:29;;;;;;;;;11.75;10.50;;;;;-147.17;100.00;50426.69;4990981;28;50995;-64
2021/12/06 10:23:56;;;;;;;;;12.50;11.50;;;;;-147.17;100.00;50407.00;4930537;28;51430;-64
2021/12/06 10:26:24;;;;;;;;;11.50;11.50;;;;;-147.17;100.00;50426.69;4912355;28;51020;-65
2021/12/06 10:28:59;;;;;;;;;14.50;14.00;;;;;-147.17;100.00;50470.00;4911032;28;52846;-64
2021/12/06 10:31:26;;;;;;;;;10.75;9.75;;;;;-147.17;100.00;50438.50;4968607;28;51138;-65
2021/12/06 10:33:54;;;;;;;;;14.50;12.75;;;;;-147.17;100.00;50473.94;4992423;28;51223;-65
2021/12/06 10:36:20;;;;;;;;;16.25;13.25;;;;;-147.17;100.00;50470.00;4990878;28;51139;-65
2021/12/06 10:38:53;;;;;;;;;13.00;12.50;;;;;-147.17;100.00;50432.59;4991818;28;52425;-65
2021/12/06 10:41:29;;;;;;;;;4.25;4.00;;;;;-147.17;100.00;50395.19;4992020;28;51038;-66
2021/12/06 10:43:58;;;;;;;;;13.00;10.75;;;;;-147.17;100.00;50468.03;4992435;28;51022;-66
2021/12/06 10:46:25;;;;;;;;;13.75;12.50;;;;;-147.17;100.00;50454.25;4991860;28;51135;-66
2021/12/06 10:48:54;;;;;;;;;16.50;15.25;;;;;-147.17;100.00;50436.53;4991923;28;52545;-65
2021/12/06 10:51:20;;;;;;;;;14.25;13.00;;;;;-147.17;100.00;50418.81;4957448;28;50976;-66
2021/12/06 10:53:59;;;;;;;;;15.75;15.00;;;;;-147.17;100.00;50452.28;4973684;28;50935;-64
2021/12/06 10:56:36;;;;;;;;;15.50;14.00;;;;;-147.17;100.00;50418.81;4911461;28;51204;-66
2021/12/06 10:59:05;;;;;;;;;13.50;11.00;;;;;-147.17;100.00;50442.44;4911365;28;51836;-66
2021/12/06 11:01:32;;;;;;;;;20.00;16.00;;;;;-147.17;100.00;50438.50;4910901;28;50932;-66
2021/12/06 11:04:00;;;;;;;;;16.25;15.50;;;;;-147.17;100.00;50426.69;4911454;28;51090;-66
2021/12/06 11:06:31;;;;;;;;;15.50;13.00;;;;;-147.17;100.00;50420.78;4910494;28;51107;-65
2021/12/06 11:08:59;;;;;;;;;18.25;16.00;;;;;-147.17;100.00;50448.34;4910881;28;51718;-67
2021/12/06 11:11:30;;;;;;;;;20.25;18.00;;;;;-147.17;100.00;50464.09;4911211;28;51175;-66
2021/12/06 11:13:59;;;;;;;;;14.00;14.00;;;;;-147.17;100.00;50414.88;4911290;28;51003;-66
2021/12/06 11:16:34;;;;;;;;;18.75;18.00;;;;;-147.17;100.00;50430.63;4911294;28;51193;-67